Time;durP1;ratioP1;P1;durP2;ratioP2;P2;SDS_P1;SDS_P2;PMS_P1;PMS_P2;Temp;Humidity;BMP_temperature;BMP_pressure;BME280_temperature;BME280_humidity;BME280_pressure;Samples;Min_cycle;Max_cycle;Signal;HPM_P1;HPM_P2
2022/11/06 00:00:19;;;;;;;6.23;5.63;;;;;;;8.45;75.17;100819.53;5009787;28;20508;-77
2022/11/06 00:02:45;;;;;;;7.85;6.82;;;;;;;8.48;74.96;100828.03;5004428;28;20410;-76
2022/11/06 00:07:55;;;;;;;9.52;7.10;;;;;;;8.62;74.95;100823.31;5013551;28;20408;-77
2022/11/06 00:10:20;;;;;;;8.47;6.70;;;;;;;8.66;74.30;100824.53;5026275;28;20879;-77
2022/11/06 00:12:47;;;;;;;8.43;7.27;;;;;;;8.65;74.38;100831.81;4999547;28;20414;-77
2022/11/06 00:15:12;;;;;;;10.02;6.60;;;;;;;8.61;74.22;100841.41;5009665;28;20771;-77
2022/11/06 00:17:37;;;;;;;7.17;5.40;;;;;;;8.54;74.95;100840.63;5009123;28;20752;-76
2022/11/06 00:20:05;;;;;;;6.00;5.13;;;;;;;8.51;74.67;100849.19;5001734;28;20562;-76
2022/11/06 00:22:37;;;;;;;5.70;5.00;;;;;;;8.45;74.79;100847.38;5013635;28;20400;-77
2022/11/06 00:25:04;;;;;;;12.63;5.60;;;;;;;8.51;74.72;100851.06;5012963;28;20484;-76
2022/11/06 00:27:29;;;;;;;14.40;8.10;;;;;;;8.46;74.64;100857.13;5008682;28;20958;-77
2022/11/06 00:29:54;;;;;;;28.73;13.15;;;;;;;8.48;74.87;100854.19;5009036;28;20488;-77
2022/11/06 00:32:20;;;;;;;21.33;11.13;;;;;;;8.55;74.30;100845.00;5003038;28;20395;-77
2022/11/06 00:34:46;;;;;;;15.40;8.73;;;;;;;8.57;74.08;100837.50;5010937;28;20412;-77
2022/11/06 00:37:11;;;;;;;8.43;5.88;;;;;;;8.50;74.11;100842.13;5012827;28;20393;-77
2022/11/06 00:39:36;;;;;;;9.52;5.75;;;;;;;8.48;74.45;100840.69;5011677;28;20405;-77
2022/11/06 00:42:02;;;;;;;8.43;5.90;;;;;;;8.51;74.62;100837.53;5010930;28;20776;-77
2022/11/06 00:44:27;;;;;;;7.75;5.68;;;;;;;8.53;74.50;100835.47;5012962;28;20558;-77
2022/11/06 00:46:52;;;;;;;6.37;5.00;;;;;;;8.49;74.09;100821.59;5012680;28;20753;-77
2022/11/06 00:49:18;;;;;;;5.87;5.27;;;;;;;8.50;73.98;100830.47;5007285;28;20535;-77
2022/11/06 00:51:43;;;;;;;6.50;5.03;;;;;;;8.53;74.18;100830.88;5003668;28;20442;-77
2022/11/06 00:54:11;;;;;;;7.40;5.37;;;;;;;8.51;74.25;100826.75;5011607;28;20397;-77
2022/11/06 00:56:36;;;;;;;6.15;5.32;;;;;;;8.51;74.19;100837.53;5013363;28;20539;-77
2022/11/06 00:59:04;;;;;;;8.73;5.50;;;;;;;8.46;74.52;100837.41;5019140;28;20421;-76
2022/11/06 01:01:32;;;;;;;10.98;6.10;;;;;;;8.46;74.02;100840.09;5015533;28;20400;-77
2022/11/06 01:04:00;;;;;;;10.80;7.07;;;;;;;8.41;73.72;100840.75;5017721;28;20511;-77
2022/11/06 01:06:28;;;;;;;9.98;6.10;;;;;;;8.39;74.28;100837.47;5017572;28;20460;-77
2022/11/06 01:08:54;;;;;;;16.20;7.50;;;;;;;8.39;74.27;100823.97;5007559;28;20401;-77
2022/11/06 01:11:35;;;;;;;5.22;4.70;;;;;;;8.36;73.90;100826.28;5016667;28;20482;-77
2022/11/06 01:14:02;;;;;;;5.78;4.22;;;;;;;8.32;74.53;100826.72;5017687;28;20496;-77
2022/11/06 01:16:28;;;;;;;7.43;4.95;;;;;;;8.28;74.27;100819.28;5017557;28;20573;-77
2022/11/06 01:18:54;;;;;;;12.00;6.10;;;;;;;8.21;73.72;100816.59;5014932;28;20883;-77
2022/11/06 01:21:29;;;;;;;11.57;5.70;;;;;;;8.17;73.57;100823.47;5017331;28;20415;-77
2022/11/06 01:23:57;;;;;;;8.63;4.82;;;;;;;8.15;73.36;100824.75;4998953;28;20444;-77
2022/11/06 01:26:23;;;;;;;16.10;9.23;;;;;;;8.11;73.57;100821.66;5009969;28;20397;-77
2022/11/06 01:28:48;;;;;;;23.58;11.23;;;;;;;8.10;73.20;100830.00;5018608;28;20400;-77
2022/11/06 01:31:19;;;;;;;25.97;12.47;;;;;;;8.08;73.10;100838.28;5004080;28;20429;-77
2022/11/06 01:33:46;;;;;;;15.73;7.05;;;;;;;8.05;72.80;100830.63;5013608;28;20439;-77
2022/11/06 01:36:13;;;;;;;15.13;7.18;;;;;;;8.03;73.29;100831.91;5017949;28;20415;-77
2022/11/06 01:38:44;;;;;;;23.02;11.02;;;;;;;7.99;73.35;100831.53;5018672;28;20487;-77
2022/11/06 01:41:14;;;;;;;7.95;6.00;;;;;;;7.97;73.27;100819.31;5017330;28;20910;-77
2022/11/06 01:43:44;;;;;;;5.20;4.70;;;;;;;7.95;73.24;100818.66;5020672;28;20471;-77
2022/11/06 01:46:10;;;;;;;5.93;4.50;;;;;;;7.96;73.29;100812.25;5014260;28;20409;-77
2022/11/06 01:48:37;;;;;;;17.67;9.98;;;;;;;7.93;73.38;100804.59;5013861;28;20401;-77
2022/11/06 01:51:02;;;;;;;5.75;4.32;;;;;;;7.93;73.09;100791.91;5016972;28;20424;-77
2022/11/06 01:53:29;;;;;;;4.00;3.70;;;;;;;7.93;73.46;100791.09;5016177;28;20416;-77
2022/11/06 01:55:58;;;;;;;3.50;3.20;;;;;;;7.91;73.41;100790.47;5004816;28;20413;-77
2022/11/06 01:58:26;;;;;;;3.40;3.10;;;;;;;7.89;73.17;100781.78;5018660;28;20625;-77
2022/11/06 02:00:52;;;;;;;5.38;3.53;;;;;;;7.90;73.13;100778.03;5013371;28;20495;-77
2022/11/06 02:03:18;;;;;;;4.70;4.20;;;;;;;7.84;73.12;100780.56;5000482;28;20497;-77
2022/11/06 02:05:43;;;;;;;3.22;2.90;;;;;;;7.72;73.22;100774.22;5005402;28;20489;-77
2022/11/06 02:08:12;;;;;;;4.55;3.17;;;;;;;7.64;72.61;100773.66;5001250;28;20434;-76
2022/11/06 02:10:38;;;;;;;3.17;2.63;;;;;;;7.56;72.43;100758.56;5007880;28;20831;-77
2022/11/06 02:13:25;;;;;;;3.28;2.80;;;;;;;7.52;72.19;100748.41;5009447;28;20401;-77
2022/11/06 02:16:37;;;;;;;5.32;3.22;;;;;;;7.52;71.74;100743.84;5006826;28;20474;-77
2022/11/06 02:19:24;;;;;;;4.00;3.60;;;;;;;7.55;72.02;100739.88;5010086;28;20911;-77
2022/11/06 02:21:59;;;;;;;21.73;10.60;;;;;;;7.54;72.20;100728.28;5020587;28;20969;-77
2022/11/06 02:24:46;;;;;;;6.72;3.65;;;;;;;7.53;72.26;100731.19;5009436;28;20457;-76
2022/11/06 02:27:23;;;;;;;6.03;3.33;;;;;;;7.55;72.26;100721.00;5017046;28;20420;-77
2022/11/06 02:29:55;;;;;;;7.93;3.13;;;;;;;7.53;72.66;100718.56;5005135;28;20496;-77
2022/11/06 02:32:27;;;;;;;4.82;3.25;;;;;;;7.55;71.87;100702.13;5040508;28;20418;-77
2022/11/06 02:34:55;;;;;;;3.75;3.35;;;;;;;7.54;72.81;100711.28;5005504;28;20408;-77
2022/11/06 02:37:26;;;;;;;4.85;3.10;;;;;;;7.52;72.70;100708.81;5014874;28;20393;-77
2022/11/06 02:39:55;;;;;;;4.97;3.53;;;;;;;7.50;72.81;100710.91;5012204;28;20967;-77
2022/11/06 02:42:22;;;;;;;6.53;3.90;;;;;;;7.50;72.50;100710.91;5011046;28;20799;-77
2022/11/06 02:44:51;;;;;;;4.43;3.55;;;;;;;7.49;72.89;100711.09;4994626;28;20773;-77
2022/11/06 02:47:18;;;;;;;4.30;3.53;;;;;;;7.45;73.15;100710.72;4997029;28;20442;-76
2022/11/06 02:49:52;;;;;;;6.47;4.10;;;;;;;7.46;73.18;100715.06;5014519;28;20396;-77
2022/11/06 02:52:19;;;;;;;4.35;3.90;;;;;;;7.39;73.81;100711.59;4999447;28;20489;-77
2022/11/06 02:54:57;;;;;;;4.00;3.60;;;;;;;7.40;73.44;100712.41;5011913;28;20492;-77
2022/11/06 02:57:25;;;;;;;4.43;3.65;;;;;;;7.47;73.13;100716.72;5010489;28;20413;-77
2022/11/06 03:00:05;;;;;;;4.13;3.60;;;;;;;7.48;72.99;100712.13;5010440;28;20508;-77
2022/11/06 03:02:37;;;;;;;4.20;3.45;;;;;;;7.47;72.73;100705.13;5014240;28;20869;-77
2022/11/06 03:05:11;;;;;;;3.90;3.50;;;;;;;7.48;72.89;100704.88;4999692;28;20738;-77
2022/11/06 03:07:46;;;;;;;4.60;3.53;;;;;;;7.50;72.74;100697.41;5004851;28;20444;-77
2022/11/06 03:10:11;;;;;;;4.38;3.55;;;;;;;7.50;72.74;100692.03;4996566;28;20405;-77
2022/11/06 03:12:50;;;;;;;4.18;3.03;;;;;;;7.50;72.41;100692.03;5007383;28;20845;-77
2022/11/06 03:15:41;;;;;;;3.65;3.25;;;;;;;7.56;72.96;100690.31;5027345;28;20895;-77
2022/11/06 03:18:32;;;;;;;3.92;3.53;;;;;;;7.55;73.05;100705.66;5000863;28;20425;-76
2022/11/06 03:21:04;;;;;;;3.70;3.40;;;;;;;7.46;73.20;100711.53;5008008;28;20410;-77
2022/11/06 03:23:37;;;;;;;3.67;3.30;;;;;;;7.42;73.16;100713.03;5024396;28;20460;-77
2022/11/06 03:26:14;;;;;;;6.00;3.28;;;;;;;7.43;73.15;100706.59;5000253;28;20940;-77
2022/11/06 03:28:54;;;;;;;4.57;3.45;;;;;;;7.44;73.20;100694.78;5004225;28;20408;-77
2022/11/06 03:31:31;;;;;;;4.85;3.25;;;;;;;7.44;73.33;100695.59;5012300;28;20448;-77
2022/11/06 03:34:09;;;;;;;5.35;3.70;;;;;;;7.45;72.84;100689.16;5006736;28;20416;-77
2022/11/06 03:36:41;;;;;;;3.75;3.30;;;;;;;7.42;73.18;100691.44;5005580;28;20888;-77
2022/11/06 03:39:36;;;;;;;3.65;3.28;;;;;;;7.40;73.41;100686.28;5011294;28;20401;-78
2022/11/06 03:42:13;;;;;;;3.75;3.10;;;;;;;7.37;73.87;100685.91;4993543;28;20437;-79
2022/11/06 03:44:43;;;;;;;3.50;3.17;;;;;;;7.32;73.19;100679.28;4996855;28;20422;-79
2022/11/06 03:47:16;;;;;;;5.07;3.03;;;;;;;7.33;74.31;100674.72;5010111;28;20766;-79
2022/11/06 03:49:50;;;;;;;3.92;3.20;;;;;;;7.38;73.91;100669.47;5011517;28;20404;-79
2022/11/06 03:52:23;;;;;;;4.25;3.28;;;;;;;7.38;73.33;100668.66;5013277;28;20416;-79
2022/11/06 03:55:00;;;;;;;3.97;2.90;;;;;;;7.35;73.51;100664.53;5015773;28;20431;-79
2022/11/06 03:57:47;;;;;;;3.13;2.93;;;;;;;7.27;73.53;100662.13;4996248;28;20504;-79
2022/11/06 04:00:13;;;;;;;4.38;3.20;;;;;;;7.22;73.83;100664.63;5005868;28;20425;-78
2022/11/06 04:02:46;;;;;;;2.90;2.70;;;;;;;7.17;73.54;100656.38;5000268;28;20406;-78
2022/11/06 04:05:22;;;;;;;10.33;3.73;;;;;;;7.16;73.20;100647.47;5009039;28;20412;-78
2022/11/06 04:16:11;;;;;;;6.05;4.97;;;;;;;7.18;72.91;100645.38;5003101;28;20404;-78
2022/11/06 04:18:36;;;;;;;4.00;3.20;;;;;;;7.16;73.34;100649.34;5023895;28;20462;-78
2022/11/06 04:21:26;;;;;;;3.27;2.93;;;;;;;7.07;72.66;100650.66;5009863;28;20402;-78
2022/11/06 04:27:22;;;;;;;5.32;3.20;;;;;;;6.93;72.41;100662.53;5013200;28;20419;-78
2022/11/06 04:30:10;;;;;;;5.05;3.85;;;;;;;6.91;72.51;100672.72;5021017;28;20974;-78
2022/11/06 04:32:59;;;;;;;3.47;3.13;;;;;;;6.90;72.17;100673.75;5003367;28;20405;-78
2022/11/06 04:35:30;;;;;;;4.75;3.40;;;;;;;6.89;71.99;100666.69;5002116;28;20401;-78
2022/11/06 04:37:58;;;;;;;4.20;3.35;;;;;;;6.86;71.57;100664.44;5010020;28;20408;-78
2022/11/06 04:40:47;;;;;;;5.95;3.30;;;;;;;6.85;71.58;100678.97;5012638;28;20403;-78
2022/11/06 04:43:35;;;;;;;4.20;2.97;;;;;;;6.89;72.37;100680.16;5044215;28;20903;-78
2022/11/06 04:46:03;;;;;;;3.27;3.00;;;;;;;6.92;72.15;100679.72;5009966;28;20392;-78
2022/11/06 04:48:29;;;;;;;7.75;5.45;;;;;;;6.92;72.71;100688.66;5002448;28;20428;-78
2022/11/06 04:51:00;;;;;;;21.52;6.40;;;;;;;6.95;72.85;100685.53;5010981;28;20408;-78
2022/11/06 04:53:28;;;;;;;9.68;6.05;;;;;;;6.99;73.55;100692.13;4999820;28;20398;-78
2022/11/06 04:55:59;;;;;;;12.95;6.75;;;;;;;7.01;73.83;100697.31;5009062;28;20414;-78
2022/11/06 04:58:25;;;;;;;18.83;6.88;;;;;;;7.00;75.00;100699.19;5001493;28;20879;-78
2022/11/06 05:00:50;;;;;;;11.63;6.55;;;;;;;7.12;74.81;100691.22;5002363;28;20403;-78
2022/11/06 05:03:17;;;;;;;14.98;6.70;;;;;;;7.24;75.34;100692.22;5007960;28;20406;-78
2022/11/06 05:05:43;;;;;;;18.27;7.27;;;;;;;7.29;75.05;100689.69;5011140;28;20413;-78
2022/11/06 05:08:14;;;;;;;14.80;6.47;;;;;;;7.24;75.47;100687.63;4998247;28;20847;-78
2022/11/06 05:10:41;;;;;;;10.73;5.40;;;;;;;7.27;75.37;100684.53;5012345;28;20393;-78
2022/11/06 05:13:06;;;;;;;12.57;5.60;;;;;;;7.26;75.68;100677.47;5003883;28;20417;-78
2022/11/06 05:15:31;;;;;;;14.33;5.97;;;;;;;7.23;76.02;100674.38;5011071;28;20404;-78
2022/11/06 05:17:57;;;;;;;11.17;5.90;;;;;;;7.22;75.86;100681.63;5003276;28;20413;-78
2022/11/06 05:20:23;;;;;;;20.70;5.63;;;;;;;7.23;76.26;100699.47;4999318;28;20408;-78
2022/11/06 05:22:59;;;;;;;18.93;5.67;;;;;;;7.18;75.83;100699.28;5007137;28;20460;-78
2022/11/06 05:25:32;;;;;;;13.50;5.32;;;;;;;7.18;76.16;100688.50;5003074;28;20428;-78
2022/11/06 05:27:58;;;;;;;22.88;6.00;;;;;;;7.17;76.21;100689.56;5009798;28;20407;-78
2022/11/06 05:30:24;;;;;;;15.03;5.47;;;;;;;7.15;76.42;100682.72;4998147;28;20464;-78
2022/11/06 05:32:50;;;;;;;16.88;5.50;;;;;;;7.15;76.75;100685.41;4997652;28;20445;-78
2022/11/06 05:35:17;;;;;;;19.75;6.15;;;;;;;7.13;76.77;100676.72;5010216;28;20472;-78
2022/11/06 05:37:42;;;;;;;33.25;6.68;;;;;;;7.15;76.68;100688.09;4999347;28;20407;-78
2022/11/06 05:40:08;;;;;;;18.87;6.10;;;;;;;7.18;77.05;100663.41;5010525;28;20483;-78
2022/11/06 05:42:41;;;;;;;18.40;5.40;;;;;;;7.21;77.16;100647.63;5008354;28;20918;-78
2022/11/06 05:45:07;;;;;;;26.37;6.57;;;;;;;7.18;76.88;100650.75;5020620;28;20458;-78
2022/11/06 05:47:33;;;;;;;23.45;6.18;;;;;;;7.18;77.44;100655.31;5015521;28;20756;-78
2022/11/06 05:49:58;;;;;;;9.63;5.90;;;;;;;7.20;77.74;100646.00;5007072;28;20398;-78
2022/11/06 05:52:24;;;;;;;26.53;6.07;;;;;;;7.18;77.02;100644.53;5001918;28;20417;-78
2022/11/06 05:54:49;;;;;;;20.23;5.97;;;;;;;7.07;77.04;100629.09;5011038;28;20409;-78
2022/11/06 05:57:14;;;;;;;14.97;5.47;;;;;;;6.99;77.57;100624.78;5002113;28;20400;-78
2022/11/06 05:59:40;;;;;;;20.27;5.47;;;;;;;6.91;77.62;100627.75;5002457;28;20443;-78
2022/11/06 06:02:06;;;;;;;11.27;5.18;;;;;;;6.79;78.07;100616.00;5003242;28;20409;-78
2022/11/06 06:04:31;;;;;;;22.70;5.88;;;;;;;6.78;77.59;100617.84;5007051;28;20895;-77
2022/11/06 06:06:56;;;;;;;12.07;4.77;;;;;;;6.78;77.88;100619.75;5010457;28;20481;-78
2022/11/06 06:09:22;;;;;;;9.97;4.90;;;;;;;6.84;77.56;100621.56;5015178;28;20469;-77
2022/11/06 06:11:51;;;;;;;5.97;4.50;;;;;;;6.86;77.30;100608.69;5015080;28;20397;-78
2022/11/06 06:14:17;;;;;;;4.53;4.13;;;;;;;6.87;77.36;100612.22;5008561;28;20414;-78
2022/11/06 06:16:42;;;;;;;5.00;4.60;;;;;;;6.86;76.80;100608.69;4998004;28;20418;-78
2022/11/06 06:19:07;;;;;;;4.73;4.33;;;;;;;6.84;76.82;100596.50;4998691;28;20404;-78
2022/11/06 06:21:33;;;;;;;4.40;3.93;;;;;;;6.78;77.06;100599.00;4999482;28;20420;-78
2022/11/06 06:23:58;;;;;;;5.77;4.17;;;;;;;6.65;76.38;100595.59;5003934;28;20807;-78
2022/11/06 06:26:24;;;;;;;5.85;4.07;;;;;;;6.53;77.20;100592.72;5006588;28;20434;-78
2022/11/06 06:28:49;;;;;;;4.30;3.90;;;;;;;6.30;76.87;100594.28;5009356;28;20901;-78
2022/11/06 06:31:15;;;;;;;3.63;3.33;;;;;;;6.25;77.25;100581.50;5000625;28;20416;-78
2022/11/06 06:33:40;;;;;;;4.47;3.60;;;;;;;6.23;77.01;100564.72;4996109;28;20501;-78
2022/11/06 06:36:06;;;;;;;3.50;3.20;;;;;;;6.16;76.57;100570.13;5011298;28;20459;-77
2022/11/06 06:38:31;;;;;;;4.15;3.45;;;;;;;6.22;76.32;100563.88;5009609;28;20408;-78
2022/11/06 06:41:07;;;;;;;10.53;7.73;;;;;;;6.23;76.46;100552.09;5027585;28;20465;-78
2022/11/06 06:43:33;;;;;;;4.15;3.53;;;;;;;6.42;75.75;100539.56;4996790;28;20425;-78
2022/11/06 06:46:03;;;;;;;3.38;3.08;;;;;;;6.46;75.68;100531.88;4999793;28;20426;-78
2022/11/06 06:48:29;;;;;;;4.22;3.20;;;;;;;6.45;75.02;100524.88;5007004;28;20456;-78
2022/11/06 06:51:01;;;;;;;3.67;3.47;;;;;;;6.44;75.62;100521.34;5003800;28;20433;-78
2022/11/06 06:53:26;;;;;;;4.22;3.83;;;;;;;6.43;75.29;100517.00;4997634;28;20403;-78
2022/11/06 06:55:52;;;;;;;5.03;4.60;;;;;;;6.46;74.92;100516.56;5006570;28;20760;-78
2022/11/06 06:58:17;;;;;;;4.07;3.77;;;;;;;6.50;74.76;100501.63;4999211;28;20408;-78
2022/11/06 07:00:43;;;;;;;4.57;4.13;;;;;;;6.52;75.10;100496.84;4994005;28;20406;-77
2022/11/06 07:03:09;;;;;;;12.73;5.97;;;;;;;6.59;74.96;100494.94;4994416;28;20415;-78
2022/11/06 07:05:34;;;;;;;5.47;4.97;;;;;;;6.64;74.81;100487.03;4996762;28;20425;-78
2022/11/06 07:08:00;;;;;;;6.50;5.20;;;;;;;6.67;74.69;100480.38;4997275;28;21234;-78
2022/11/06 07:10:25;;;;;;;6.33;5.67;;;;;;;6.71;75.28;100474.34;4994790;28;20398;-78
2022/11/06 07:12:50;;;;;;;7.90;5.63;;;;;;;6.77;75.06;100465.41;4994244;28;20407;-78
2022/11/06 07:15:16;;;;;;;7.20;5.97;;;;;;;6.81;74.88;100464.94;4995016;28;20808;-78
2022/11/06 07:17:41;;;;;;;6.53;5.80;;;;;;;6.84;75.00;100457.25;4997259;28;20417;-77
2022/11/06 07:20:08;;;;;;;5.80;5.20;;;;;;;6.88;75.24;100452.25;5011029;28;20487;-79
2022/11/06 07:22:33;;;;;;;4.80;4.40;;;;;;;6.93;75.60;100441.63;5007296;28;20420;-78
2022/11/06 07:24:58;;;;;;;5.17;4.67;;;;;;;6.96;75.21;100447.41;5007948;28;20413;-78
2022/11/06 07:27:24;;;;;;;4.60;4.20;;;;;;;7.01;75.24;100444.06;4998197;28;20473;-79
2022/11/06 07:29:49;;;;;;;6.82;4.55;;;;;;;7.01;75.76;100450.25;4996541;28;20912;-78
2022/11/06 07:32:15;;;;;;;4.33;3.90;;;;;;;7.02;75.22;100453.75;5010538;28;20449;-78
2022/11/06 07:34:40;;;;;;;6.07;3.90;;;;;;;7.06;75.54;100458.50;4995454;28;20442;-78
2022/11/06 07:37:06;;;;;;;7.77;4.20;;;;;;;7.10;75.84;100464.28;4994960;28;20409;-78
2022/11/06 07:39:31;;;;;;;7.07;5.17;;;;;;;7.14;75.78;100463.63;4996448;28;20517;-78
2022/11/06 07:41:57;;;;;;;5.67;5.13;;;;;;;7.16;75.75;100474.16;4995875;28;20446;-78
2022/11/06 07:44:22;;;;;;;6.60;5.90;;;;;;;7.18;75.77;100475.56;4995754;28;20423;-78
2022/11/06 07:46:47;;;;;;;6.23;5.63;;;;;;;7.21;75.90;100487.81;4993840;28;20411;-77
2022/11/06 07:49:14;;;;;;;7.03;5.40;;;;;;;7.19;75.57;100488.00;4995370;28;21016;-77
2022/11/06 07:51:40;;;;;;;5.50;5.10;;;;;;;7.23;75.67;100497.31;4995537;28;20939;-75
2022/11/06 07:54:05;;;;;;;5.93;5.40;;;;;;;7.27;75.41;100503.09;4995442;28;20410;-77
2022/11/06 07:56:30;;;;;;;6.47;5.00;;;;;;;7.30;76.33;100514.25;4996545;28;20414;-77
2022/11/06 07:58:56;;;;;;;6.63;5.27;;;;;;;7.40;76.17;100508.34;4993998;28;20780;-75
2022/11/06 08:01:21;;;;;;;7.23;4.90;;;;;;;7.47;75.93;100513.66;4995868;28;20407;-78
2022/11/06 08:03:47;;;;;;;5.72;5.22;;;;;;;7.55;75.88;100516.06;4997496;28;20477;-77
2022/11/06 08:06:12;;;;;;;5.83;5.27;;;;;;;7.62;75.73;100517.63;4990693;28;20414;-77
2022/11/06 08:08:37;;;;;;;6.33;5.73;;;;;;;7.59;75.95;100519.97;4996961;28;20761;-77
2022/11/06 08:11:08;;;;;;;9.73;8.33;;;;;;;7.65;76.25;100529.84;4999864;28;20444;-78
2022/11/06 08:13:34;;;;;;;7.43;6.65;;;;;;;7.74;76.29;100542.81;5006057;28;20395;-75
2022/11/06 08:16:08;;;;;;;8.67;6.83;;;;;;;7.78;76.39;100551.28;5006997;28;20439;-78
2022/11/06 08:18:34;;;;;;;6.70;6.00;;;;;;;7.76;76.91;100575.81;5003966;28;20754;-78
2022/11/06 08:21:00;;;;;;;7.55;6.85;;;;;;;7.83;76.38;100589.22;5017103;28;20881;-78
2022/11/06 08:23:25;;;;;;;6.97;6.38;;;;;;;7.84;76.89;100572.78;5003609;28;20409;-78
2022/11/06 08:25:58;;;;;;;6.95;5.38;;;;;;;7.95;76.12;100551.50;5018287;28;20415;-78
2022/11/06 08:28:25;;;;;;;6.40;5.82;;;;;;;8.06;76.57;100554.28;5006789;28;20408;-78
2022/11/06 08:30:51;;;;;;;5.95;5.35;;;;;;;8.12;76.00;100547.16;5015791;28;20406;-78
2022/11/06 08:33:16;;;;;;;5.88;5.28;;;;;;;8.11;76.26;100537.41;5005804;28;20902;-78
2022/11/06 08:35:42;;;;;;;6.25;5.70;;;;;;;8.12;75.52;100541.75;5012201;28;20393;-78
2022/11/06 08:38:07;;;;;;;6.93;6.33;;;;;;;8.04;76.22;100550.16;5013171;28;20917;-79
2022/11/06 08:40:32;;;;;;;8.10;7.50;;;;;;;8.09;76.01;100544.91;5015046;28;20413;-80
2022/11/06 08:43:01;;;;;;;6.68;6.07;;;;;;;8.12;75.66;100539.88;5011945;28;20899;-81
2022/11/06 08:45:27;;;;;;;6.05;5.45;;;;;;;7.82;76.13;100539.84;5011491;28;20836;-80
2022/11/06 08:47:53;;;;;;;5.63;5.10;;;;;;;7.92;76.75;100538.47;5005383;28;20414;-79
2022/11/06 08:50:18;;;;;;;6.13;5.60;;;;;;;7.96;76.76;100535.09;5000254;28;20925;-79
2022/11/06 08:52:43;;;;;;;5.43;5.00;;;;;;;7.95;76.41;100524.53;5002338;28;20409;-79
2022/11/06 08:55:09;;;;;;;5.70;5.20;;;;;;;8.01;76.34;100518.22;5006320;28;20445;-79
2022/11/06 08:57:34;;;;;;;9.43;6.93;;;;;;;7.82;76.64;100502.06;5016704;28;20418;-79
2022/11/06 08:59:59;;;;;;;6.87;6.33;;;;;;;7.91;76.69;100491.78;5003457;28;20482;-80
2022/11/06 09:02:25;;;;;;;7.20;6.60;;;;;;;7.93;76.83;100486.16;5003072;28;20432;-81
2022/11/06 09:04:50;;;;;;;6.03;5.50;;;;;;;7.94;76.35;100496.72;5002870;28;20763;-78
2022/11/06 09:07:16;;;;;;;7.03;6.33;;;;;;;8.14;76.96;100502.69;5005553;28;20584;-78
2022/11/06 09:09:41;;;;;;;7.33;5.50;;;;;;;8.30;75.82;100479.66;5006424;28;20409;-78
2022/11/06 09:12:07;;;;;;;7.60;5.87;;;;;;;8.36;75.91;100461.72;5013699;28;20956;-77
2022/11/06 09:14:33;;;;;;;6.45;5.53;;;;;;;8.50;75.69;100460.47;4999677;28;20413;-78
2022/11/06 09:16:58;;;;;;;6.20;5.67;;;;;;;8.64;75.17;100453.81;5002496;28;20420;-78
2022/11/06 09:19:24;;;;;;;5.60;5.10;;;;;;;8.68;75.50;100436.06;5003952;28;20401;-78
2022/11/06 09:21:49;;;;;;;6.00;5.50;;;;;;;8.59;75.47;100440.19;5014872;28;20414;-80
2022/11/06 09:24:14;;;;;;;5.07;4.67;;;;;;;8.50;75.78;100436.97;5024069;28;20409;-80
2022/11/06 09:26:40;;;;;;;5.63;5.07;;;;;;;8.69;75.48;100440.44;5012166;28;20770;-77
2022/11/06 09:29:05;;;;;;;5.87;5.30;;;;;;;8.96;74.87;100435.41;5015277;28;20409;-78
2022/11/06 09:31:30;;;;;;;4.97;4.57;;;;;;;9.17;73.97;100421.28;5016266;28;20879;-79
2022/11/06 09:33:56;;;;;;;8.00;5.70;;;;;;;9.53;73.42;100428.28;5022303;28;20404;-78
2022/11/06 09:36:21;;;;;;;5.70;5.20;;;;;;;9.65;72.51;100421.78;5004605;28;20493;-77
2022/11/06 09:38:47;;;;;;;8.90;6.63;;;;;;;9.67;72.50;100418.84;5009636;28;20447;-77
2022/11/06 09:41:19;;;;;;;6.70;5.13;;;;;;;9.68;72.60;100412.38;5007329;28;20391;-80
2022/11/06 09:44:07;;;;;;;6.30;5.60;;;;;;;10.08;71.70;100415.03;5016325;28;20939;-78
2022/11/06 09:46:43;;;;;;;5.97;5.38;;;;;;;10.54;70.49;100417.50;5015521;28;20395;-79
2022/11/06 09:49:34;;;;;;;6.78;4.78;;;;;;;11.11;68.46;100403.75;5014627;28;21020;-78
2022/11/06 09:52:06;;;;;;;5.15;4.65;;;;;;;11.19;68.00;100403.34;5005916;28;20417;-79
2022/11/06 09:54:47;;;;;;;5.05;4.65;;;;;;;11.26;67.88;100409.41;4998588;28;20541;-80
2022/11/06 09:57:19;;;;;;;7.00;6.40;;;;;;;11.44;67.24;100387.41;4997923;28;20414;-81
2022/11/06 09:59:47;;;;;;;6.13;5.53;;;;;;;11.48;66.78;100374.16;5000907;28;20465;-80
2022/11/06 10:02:36;;;;;;;5.30;4.50;;;;;;;11.37;67.20;100368.59;5010744;28;20553;-80
2022/11/06 10:05:31;;;;;;;5.57;5.07;;;;;;;11.30;67.23;100367.94;5017172;28;20516;-80
2022/11/06 10:08:06;;;;;;;5.88;5.38;;;;;;;11.21;67.98;100371.34;5011619;28;20411;-80
2022/11/06 10:10:53;;;;;;;7.25;6.07;;;;;;;11.42;67.04;100371.38;5007762;28;20902;-81
2022/11/06 10:13:31;;;;;;;6.55;5.95;;;;;;;11.16;67.46;100366.69;5010209;28;20428;-80
2022/11/06 10:16:14;;;;;;;6.28;5.63;;;;;;;10.80;68.50;100349.09;5001454;28;20453;-81
2022/11/06 10:18:55;;;;;;;7.10;5.50;;;;;;;10.67;68.90;100340.50;4999265;28;20478;-81
2022/11/06 10:21:32;;;;;;;5.75;5.25;;;;;;;10.60;69.30;100326.31;5007920;28;20869;-81
2022/11/06 10:24:04;;;;;;;7.25;5.95;;;;;;;10.47;70.01;100330.19;5008459;28;20503;-80
2022/11/06 10:26:42;;;;;;;8.88;5.88;;;;;;;10.49;70.21;100328.03;5013448;28;20405;-81
2022/11/06 10:29:20;;;;;;;6.80;6.10;;;;;;;10.55;70.52;100326.22;5007628;28;20401;-81
2022/11/06 10:32:08;;;;;;;6.37;5.63;;;;;;;10.59;70.16;100322.75;5004932;28;20503;-80
2022/11/06 10:34:48;;;;;;;6.50;5.80;;;;;;;10.57;70.25;100313.25;5013202;28;20419;-81
2022/11/06 10:37:28;;;;;;;12.43;6.68;;;;;;;10.61;70.38;100300.81;5006775;28;20407;-80
2022/11/06 10:39:55;;;;;;;7.15;5.28;;;;;;;10.68;70.40;100298.75;5008835;28;20428;-81
2022/11/06 10:42:29;;;;;;;6.38;5.50;;;;;;;10.74;70.52;100295.88;5010368;28;20413;-81
2022/11/06 10:44:59;;;;;;;6.78;5.40;;;;;;;10.76;70.28;100285.63;5015044;28;20425;-81
2022/11/06 10:47:32;;;;;;;7.13;5.63;;;;;;;10.75;70.43;100269.59;5003162;28;20851;-81
2022/11/06 10:50:01;;;;;;;5.82;5.25;;;;;;;10.75;70.37;100267.72;5006011;28;20426;-81
2022/11/06 10:52:43;;;;;;;8.98;5.50;;;;;;;10.76;70.39;100257.69;5021430;28;20417;-82
2022/11/06 10:55:47;;;;;;;9.50;5.77;;;;;;;10.75;70.20;100259.56;5004697;28;21012;-81
2022/11/06 10:58:16;;;;;;;7.25;5.53;;;;;;;10.79;70.04;100257.19;4989560;28;20492;-80
2022/11/06 11:00:42;;;;;;;7.05;4.60;;;;;;;10.80;69.71;100261.53;5024853;28;20430;-81
2022/11/06 11:03:45;;;;;;;5.90;4.85;;;;;;;10.78;69.15;100264.50;5016556;28;20473;-80
2022/11/06 11:06:10;;;;;;;6.30;4.82;;;;;;;10.74;69.20;100257.94;5024829;28;20393;-81
2022/11/06 11:08:46;;;;;;;4.50;4.13;;;;;;;10.73;69.22;100264.44;5024856;28;20484;-77
2022/11/06 11:11:22;;;;;;;4.78;4.28;;;;;;;10.68;68.68;100245.38;5025353;28;20410;-81
2022/11/06 11:13:55;;;;;;;4.40;4.00;;;;;;;10.68;68.70;100231.84;5017077;28;20406;-80
2022/11/06 11:16:47;;;;;;;4.88;3.42;;;;;;;10.68;68.43;100231.84;5021266;28;20397;-80
2022/11/06 11:19:43;;;;;;;4.77;3.40;;;;;;;10.76;67.89;100222.47;5009683;28;20396;-81
2022/11/06 11:22:20;;;;;;;3.65;3.00;;;;;;;10.93;67.87;100217.78;5017823;28;20403;-80
2022/11/06 11:25:00;;;;;;;4.27;2.93;;;;;;;11.15;67.43;100224.00;5026546;28;20542;-80
2022/11/06 11:27:27;;;;;;;4.55;3.80;;;;;;;11.33;66.78;100211.97;5024740;28;20387;-80
2022/11/06 11:29:52;;;;;;;5.05;3.25;;;;;;;11.41;66.70;100204.22;5014278;28;20399;-79
2022/11/06 11:32:20;;;;;;;3.88;3.03;;;;;;;11.44;66.67;100192.84;5022492;28;20901;-80
2022/11/06 11:34:49;;;;;;;5.00;3.20;;;;;;;11.46;66.57;100184.44;5056987;28;20391;-81
2022/11/06 11:37:26;;;;;;;4.25;3.30;;;;;;;11.48;66.38;100185.00;5022602;28;20490;-81
2022/11/06 11:39:51;;;;;;;10.00;4.88;;;;;;;11.48;66.33;100168.72;5021092;28;20401;-80
2022/11/06 11:42:28;;;;;;;6.73;4.10;;;;;;;11.57;65.91;100163.63;5015602;28;20476;-79
2022/11/06 11:45:09;;;;;;;5.45;3.75;;;;;;;11.70;65.49;100165.91;5026056;28;20423;-81
2022/11/06 11:47:40;;;;;;;10.57;4.10;;;;;;;11.75;65.23;100166.84;5017810;28;20412;-81
2022/11/06 11:50:20;;;;;;;3.33;2.72;;;;;;;11.82;64.70;100161.97;5006840;28;20537;-81
2022/11/06 11:52:48;;;;;;;8.75;3.35;;;;;;;11.84;64.65;100162.56;5025963;28;20410;-81
2022/11/06 11:55:16;;;;;;;4.30;3.15;;;;;;;11.84;65.29;100159.84;5015000;28;20393;-81
2022/11/06 11:57:44;;;;;;;4.53;3.33;;;;;;;11.82;65.03;100161.19;5012576;28;20422;-81